Time;durP1;ratioP1;P1;durP2;ratioP2;P2;SDS_P1;SDS_P2;PMS_P1;PMS_P2;Temp;Humidity;BMP_temperature;BMP_pressure;BME280_temperature;BME280_humidity;BME280_pressure;Samples;Min_cycle;Max_cycle;Signal;HPM_P1;HPM_P2
2021/10/05 00:00:14;;;;;;;8.20;6.45;;;11.90;95.00;;;;;;4869393;29;20030;-87
2021/10/05 00:02:40;;;;;;;8.30;5.90;;;12.00;95.00;;;;;;4868234;29;20040;-87
2021/10/05 00:05:07;;;;;;;6.30;5.57;;;12.00;95.00;;;;;;4877555;29;20043;-86
2021/10/05 00:07:33;;;;;;;8.07;6.00;;;12.00;95.00;;;;;;4867852;29;20623;-86
2021/10/05 00:09:58;;;;;;;7.95;6.13;;;12.00;95.00;;;;;;4858247;29;20061;-86
2021/10/05 00:12:24;;;;;;;6.75;5.75;;;12.00;95.00;;;;;;4858662;29;20025;-86
2021/10/05 00:14:50;;;;;;;7.45;6.30;;;12.00;95.00;;;;;;4858812;29;20029;-86
2021/10/05 00:17:19;;;;;;;10.35;6.97;;;12.00;95.00;;;;;;4858378;29;20030;-86
2021/10/05 00:19:46;;;;;;;9.38;6.68;;;12.10;95.10;;;;;;4878074;29;20033;-85
2021/10/05 00:22:11;;;;;;;6.78;6.07;;;12.00;95.10;;;;;;4874555;29;20055;-85
2021/10/05 00:24:37;;;;;;;7.90;6.50;;;12.00;95.10;;;;;;4863056;29;20022;-87
2021/10/05 00:27:03;;;;;;;6.50;5.80;;;12.10;95.10;;;;;;4858231;29;20029;-85
2021/10/05 00:29:29;;;;;;;8.75;6.45;;;12.10;95.10;;;;;;4867967;29;20034;-85
2021/10/05 00:31:54;;;;;;;8.88;6.20;;;12.10;95.10;;;;;;4863156;29;20123;-86
2021/10/05 00:34:20;;;;;;;8.18;6.32;;;12.10;95.10;;;;;;4866104;29;20029;-86
2021/10/05 00:36:45;;;;;;;6.72;5.78;;;12.10;95.10;;;;;;4876432;29;20386;-86
2021/10/05 00:39:11;;;;;;;6.25;5.65;;;12.10;95.10;;;;;;4877002;29;20025;-86
2021/10/05 00:41:37;;;;;;;8.07;6.30;;;12.10;95.10;;;;;;4876870;29;20394;-86
2021/10/05 00:44:03;;;;;;;7.25;6.45;;;12.10;95.10;;;;;;4875961;29;20036;-85
2021/10/05 00:46:29;;;;;;;10.70;6.22;;;12.10;95.10;;;;;;4876360;29;20044;-86
2021/10/05 00:48:55;;;;;;;9.48;6.53;;;12.10;95.20;;;;;;4877879;29;20033;-85
2021/10/05 00:51:22;;;;;;;9.75;6.82;;;12.10;95.20;;;;;;4895563;29;20032;-85
2021/10/05 00:53:48;;;;;;;8.80;7.50;;;12.10;95.10;;;;;;4884024;29;20074;-85
2021/10/05 00:56:14;;;;;;;7.80;6.90;;;12.00;95.10;;;;;;4894503;29;20048;-85
2021/10/05 00:58:39;;;;;;;8.85;7.78;;;12.00;95.10;;;;;;4865088;29;20037;-86
2021/10/05 01:01:05;;;;;;;8.75;6.75;;;11.90;95.00;;;;;;4870823;29;20041;-85
2021/10/05 01:03:31;;;;;;;12.57;8.15;;;11.90;95.20;;;;;;4869799;29;20044;-85
2021/10/05 01:05:57;;;;;;;10.38;7.65;;;11.90;95.20;;;;;;4862625;29;20033;-86
2021/10/05 01:08:23;;;;;;;10.93;7.78;;;11.90;95.30;;;;;;4860919;29;20371;-85
2021/10/05 01:10:49;;;;;;;8.75;7.22;;;11.90;95.30;;;;;;4861146;29;20022;-85
2021/10/05 01:13:14;;;;;;;8.18;6.30;;;11.90;95.30;;;;;;4860493;29;20078;-87
2021/10/05 01:15:40;;;;;;;10.32;7.28;;;11.90;95.30;;;;;;4872705;29;20031;-86
2021/10/05 01:18:06;;;;;;;10.45;8.52;;;11.90;95.30;;;;;;4878908;29;20036;-86
2021/10/05 01:20:55;;;;;;;9.75;7.90;;;11.90;95.40;;;;;;4879137;29;20036;-86
2021/10/05 01:23:23;;;;;;;10.35;8.15;;;11.90;95.40;;;;;;4877996;29;20355;-85
2021/10/05 01:25:49;;;;;;;10.68;8.07;;;11.90;95.40;;;;;;4860125;29;20033;-86
2021/10/05 01:28:18;;;;;;;9.13;7.63;;;11.90;95.40;;;;;;4869317;29;20060;-85
2021/10/05 01:30:45;;;;;;;10.27;8.40;;;11.90;95.40;;;;;;4865120;29;20029;-86
2021/10/05 01:33:12;;;;;;;9.23;7.60;;;12.00;95.40;;;;;;4880154;29;20104;-86
2021/10/05 01:35:38;;;;;;;12.60;8.70;;;12.00;95.50;;;;;;4881303;29;20564;-87
2021/10/05 01:38:04;;;;;;;12.15;8.27;;;12.00;95.50;;;;;;4880914;29;20025;-87
2021/10/05 01:40:29;;;;;;;12.93;8.25;;;12.00;95.50;;;;;;4882430;29;20071;-85
2021/10/05 01:42:55;;;;;;;10.93;8.00;;;12.00;95.50;;;;;;4879104;29;20084;-88
2021/10/05 01:45:20;;;;;;;10.82;7.63;;;12.00;95.50;;;;;;4881775;29;20045;-87
2021/10/05 01:47:46;;;;;;;10.70;7.82;;;12.00;95.50;;;;;;4880810;29;20033;-87
2021/10/05 01:50:12;;;;;;;11.73;7.90;;;12.00;95.50;;;;;;4879459;29;20029;-85
2021/10/05 01:52:38;;;;;;;12.88;8.40;;;12.00;95.50;;;;;;4881254;29;20106;-86
2021/10/05 01:55:06;;;;;;;12.77;8.50;;;12.10;95.50;;;;;;4867688;29;20037;-86
2021/10/05 01:57:32;;;;;;;12.70;8.43;;;12.00;95.50;;;;;;4862146;29;20044;-85
2021/10/05 01:59:57;;;;;;;11.57;8.35;;;12.00;95.50;;;;;;4861325;29;20399;-88
2021/10/05 02:02:23;;;;;;;14.68;9.38;;;12.00;95.60;;;;;;4868318;29;20158;-88
2021/10/05 02:04:49;;;;;;;14.40;9.57;;;12.00;95.60;;;;;;4862550;29;20053;-87
2021/10/05 02:07:14;;;;;;;13.43;9.15;;;12.00;95.60;;;;;;4880204;29;20349;-86
2021/10/05 02:09:47;;;;;;;14.63;8.95;;;12.10;95.60;;;;;;4879054;29;20025;-87
2021/10/05 02:12:16;;;;;;;11.90;7.95;;;12.00;95.80;;;;;;4878300;29;20040;-88
2021/10/05 02:14:44;;;;;;;16.33;9.20;;;12.00;95.60;;;;;;4879140;29;20033;-86
2021/10/05 02:17:10;;;;;;;15.40;9.98;;;12.00;95.60;;;;;;4878025;29;20028;-88
2021/10/05 02:19:37;;;;;;;12.80;9.13;;;12.00;95.60;;;;;;4878004;29;20029;-86
2021/10/05 02:22:03;;;;;;;13.55;9.98;;;12.00;95.60;;;;;;4878128;29;20482;-87
2021/10/05 02:26:59;;;;;;;15.00;9.93;;;11.90;95.60;;;;;;4873169;29;20048;-87
2021/10/05 02:29:25;;;;;;;14.73;10.13;;;11.80;95.60;;;;;;4878770;29;20040;-88
2021/10/05 02:31:51;;;;;;;18.50;10.25;;;11.90;95.60;;;;;;4865484;29;20021;-86
2021/10/05 02:34:18;;;;;;;14.80;9.98;;;11.80;95.60;;;;;;4860248;29;20039;-87
2021/10/05 02:36:44;;;;;;;16.65;10.70;;;11.80;95.70;;;;;;4877709;29;20025;-87
2021/10/05 02:39:10;;;;;;;15.88;10.07;;;11.80;95.70;;;;;;4877698;29;20025;-86
2021/10/05 02:41:36;;;;;;;14.10;10.40;;;11.80;95.70;;;;;;4877764;29;20025;-87
2021/10/05 02:44:02;;;;;;;14.90;10.32;;;11.80;95.70;;;;;;4877589;29;20036;-87
2021/10/05 02:46:28;;;;;;;16.27;10.45;;;11.80;95.70;;;;;;4877509;29;20037;-87
2021/10/05 02:48:53;;;;;;;16.25;10.27;;;11.70;95.70;;;;;;4877014;29;20036;-87
2021/10/05 02:51:19;;;;;;;15.13;10.30;;;11.70;95.80;;;;;;4877430;29;20044;-86
2021/10/05 02:53:45;;;;;;;15.65;9.50;;;11.70;96.10;;;;;;4873058;29;20033;-89
2021/10/05 02:56:10;;;;;;;15.90;10.10;;;11.80;95.90;;;;;;4858717;29;20032;-89
2021/10/05 02:58:36;;;;;;;14.95;9.93;;;11.80;95.90;;;;;;4858647;29;20021;-88
2021/10/05 03:01:02;;;;;;;15.13;9.40;;;11.80;95.90;;;;;;4860436;29;20018;-87
2021/10/05 03:03:27;;;;;;;16.75;10.50;;;11.80;95.90;;;;;;4866507;29;20049;-87
2021/10/05 03:05:53;;;;;;;16.85;10.18;;;11.80;96.00;;;;;;4878296;29;20749;-88
2021/10/05 03:08:19;;;;;;;18.08;10.45;;;11.80;95.90;;;;;;4877509;29;20040;-87
2021/10/05 03:10:44;;;;;;;18.15;10.35;;;11.80;95.90;;;;;;4878584;29;20494;-88
2021/10/05 03:13:10;;;;;;;20.67;11.07;;;11.80;95.90;;;;;;4877397;29;20075;-87
2021/10/05 03:15:35;;;;;;;18.85;9.70;;;11.90;96.00;;;;;;4876512;29;20140;-87
2021/10/05 03:18:01;;;;;;;15.80;9.43;;;11.90;96.00;;;;;;4876609;29;20028;-85
2021/10/05 03:20:27;;;;;;;17.88;10.25;;;11.90;96.00;;;;;;4876529;29;20060;-87
2021/10/05 03:22:52;;;;;;;16.00;9.65;;;11.90;96.00;;;;;;4877307;29;20298;-86
2021/10/05 03:25:18;;;;;;;14.90;9.52;;;11.90;96.00;;;;;;4859647;29;20108;-86
2021/10/05 03:27:43;;;;;;;18.48;9.82;;;11.90;96.00;;;;;;4875440;29;20029;-87
2021/10/05 03:30:10;;;;;;;16.13;9.70;;;11.90;96.00;;;;;;4871434;29;20029;-87
2021/10/05 03:32:35;;;;;;;14.98;8.90;;;11.90;95.90;;;;;;4875631;29;20029;-86
2021/10/05 03:35:02;;;;;;;14.90;8.93;;;11.80;95.90;;;;;;4877157;29;20029;-88
2021/10/05 03:37:27;;;;;;;15.95;9.00;;;11.80;96.00;;;;;;4876339;29;20029;-87
2021/10/05 03:39:53;;;;;;;16.02;10.25;;;11.90;96.10;;;;;;4875499;29;20035;-86
2021/10/05 03:42:19;;;;;;;14.45;8.60;;;11.80;96.10;;;;;;4860927;29;20036;-86
2021/10/05 03:44:44;;;;;;;15.68;9.25;;;11.90;96.10;;;;;;4858020;29;20041;-88
2021/10/05 03:47:10;;;;;;;15.23;9.57;;;11.90;96.10;;;;;;4877868;29;20061;-87
2021/10/05 03:49:37;;;;;;;14.60;9.38;;;11.80;96.10;;;;;;4878158;29;20075;-87
2021/10/05 03:52:03;;;;;;;13.38;9.00;;;11.90;96.20;;;;;;4878006;29;20021;-88
2021/10/05 03:54:28;;;;;;;16.23;9.63;;;11.90;96.20;;;;;;4877838;29;20065;-87
2021/10/05 03:56:54;;;;;;;17.73;10.60;;;11.90;96.30;;;;;;4877515;29;20108;-86
2021/10/05 03:59:21;;;;;;;15.60;8.73;;;11.90;96.20;;;;;;4862331;29;20045;-86
2021/10/05 04:01:46;;;;;;;16.75;10.35;;;11.90;96.20;;;;;;4862959;29;20415;-87
2021/10/05 04:04:13;;;;;;;17.05;10.10;;;11.90;96.20;;;;;;4863651;29;20133;-87
2021/10/05 04:06:39;;;;;;;17.65;10.48;;;11.90;96.10;;;;;;4876370;29;20560;-86
2021/10/05 04:09:06;;;;;;;14.55;9.13;;;11.90;96.10;;;;;;4877681;29;20040;-87
2021/10/05 04:11:35;;;;;;;17.08;10.23;;;11.90;96.20;;;;;;4876112;29;20136;-88
2021/10/05 04:14:02;;;;;;;18.15;10.50;;;11.90;96.20;;;;;;4870357;29;20451;-88
2021/10/05 04:16:28;;;;;;;17.25;9.85;;;11.90;96.30;;;;;;4859929;29;20025;-86
2021/10/05 04:18:53;;;;;;;17.67;10.15;;;11.90;96.30;;;;;;4860705;29;20085;-88
2021/10/05 04:21:19;;;;;;;17.58;9.48;;;11.90;96.30;;;;;;4869980;29;20029;-86
2021/10/05 04:23:45;;;;;;;18.40;9.60;;;11.90;96.30;;;;;;4876309;29;20033;-87
2021/10/05 04:26:11;;;;;;;16.55;9.32;;;11.90;96.30;;;;;;4875775;29;20041;-87
2021/10/05 04:28:37;;;;;;;19.27;10.70;;;12.00;96.30;;;;;;4869734;29;20086;-87
2021/10/05 04:31:03;;;;;;;17.23;10.07;;;12.00;96.30;;;;;;4875614;29;20060;-87
2021/10/05 04:33:29;;;;;;;18.52;10.95;;;12.00;96.30;;;;;;4879279;29;20033;-87
2021/10/05 04:35:55;;;;;;;19.25;11.40;;;12.00;96.30;;;;;;4880375;29;20028;-88
2021/10/05 04:38:20;;;;;;;18.52;10.77;;;12.10;96.30;;;;;;4880733;29;20065;-87
2021/10/05 04:40:46;;;;;;;20.40;11.82;;;12.00;96.30;;;;;;4880501;29;20033;-86
2021/10/05 04:43:12;;;;;;;18.17;10.90;;;12.10;96.20;;;;;;4877589;29;20184;-87
2021/10/05 04:45:37;;;;;;;17.35;10.75;;;12.00;96.20;;;;;;4860138;29;20029;-88
2021/10/05 04:48:07;;;;;;;21.20;11.25;;;11.90;96.10;;;;;;4861765;29;20116;-88
2021/10/05 04:50:33;;;;;;;18.60;11.85;;;11.90;96.20;;;;;;4862054;29;20025;-86
2021/10/05 04:52:59;;;;;;;18.02;10.25;;;11.90;96.20;;;;;;4862349;29;20097;-87
2021/10/05 04:55:25;;;;;;;17.05;9.15;;;11.80;96.20;;;;;;4873213;29;20025;-86
2021/10/05 04:57:51;;;;;;;15.27;9.07;;;11.80;96.30;;;;;;4879568;29;20423;-85
2021/10/05 05:00:17;;;;;;;14.93;8.88;;;11.80;96.30;;;;;;4879268;29;20116;-86
2021/10/05 05:02:42;;;;;;;13.68;8.55;;;11.80;96.30;;;;;;4869637;29;20064;-86
2021/10/05 15:39:10;;;;;;;0.80;0.80;;;16.10;92.00;;;;;;824287;23;20331;-88
2021/10/05 16:11:16;;;;;;;3.45;1.80;;;15.80;92.10;;;;;;1610302;23;20489;-85
2021/10/05 16:14:10;;;;;;;1.95;1.25;;;15.70;92.20;;;;;;4857367;29;20054;-89
2021/10/05 17:08:35;;;;;;;3.75;1.20;;;14.70;92.80;;;;;;4901380;29;20167;-85
2021/10/05 17:11:01;;;;;;;2.28;1.20;;;14.60;92.80;;;;;;4902351;29;20531;-86
2021/10/05 17:13:27;;;;;;;5.72;2.08;;;14.60;92.90;;;;;;4910419;29;20070;-85
2021/10/05 17:15:52;;;;;;;1.85;1.75;;;14.50;93.00;;;;;;4910155;29;20079;-85
2021/10/05 17:18:18;;;;;;;1.20;1.10;;;14.60;93.10;;;;;;4912021;29;20386;-86
2021/10/05 17:20:43;;;;;;;0.95;0.95;;;14.50;93.10;;;;;;4912889;29;20036;-86
2021/10/05 17:23:10;;;;;;;2.88;1.17;;;14.50;93.10;;;;;;4903663;29;20032;-85
2021/10/05 17:25:36;;;;;;;1.05;1.00;;;14.50;93.30;;;;;;4902081;29;20532;-86
2021/10/05 17:28:02;;;;;;;1.95;0.90;;;14.50;93.30;;;;;;4907337;29;20044;-85
2021/10/05 17:30:29;;;;;;;1.10;1.00;;;14.50;93.20;;;;;;4894955;29;20037;-86
2021/10/05 17:32:54;;;;;;;0.90;0.90;;;14.50;93.20;;;;;;4905901;29;20436;-85
2021/10/05 17:35:20;;;;;;;1.00;1.00;;;14.50;93.20;;;;;;4909809;29;20032;-86
2021/10/05 17:37:46;;;;;;;1.98;0.80;;;14.50;93.30;;;;;;4916891;29;20107;-86
2021/10/05 17:40:12;;;;;;;2.53;0.95;;;14.50;93.30;;;;;;4918749;29;20028;-86
2021/10/05 17:42:38;;;;;;;4.78;3.55;;;14.50;93.40;;;;;;4915232;29;20516;-85
2021/10/05 17:45:07;;;;;;;7.15;2.30;;;14.50;93.40;;;;;;4919497;29;20521;-86
2021/10/05 17:47:38;;;;;;;5.30;2.72;;;14.50;93.40;;;;;;4917924;29;20095;-86
2021/10/05 17:50:06;;;;;;;8.20;4.22;;;14.50;93.50;;;;;;4919538;29;21544;-85
2021/10/05 17:52:32;;;;;;;2.85;1.70;;;14.50;93.50;;;;;;4914801;29;20074;-85
2021/10/05 17:54:58;;;;;;;1.20;1.10;;;14.50;93.50;;;;;;4917730;29;20072;-85
2021/10/05 17:57:25;;;;;;;2.03;1.00;;;14.50;93.50;;;;;;4917584;29;20032;-86
2021/10/05 17:59:51;;;;;;;1.80;1.70;;;14.60;93.50;;;;;;4917488;29;20521;-86
2021/10/05 18:02:17;;;;;;;1.40;1.30;;;14.60;93.40;;;;;;4914870;29;20064;-85
2021/10/05 18:04:42;;;;;;;1.90;1.80;;;14.50;93.40;;;;;;4911582;29;20114;-85
2021/10/05 18:07:08;;;;;;;2.05;1.40;;;14.50;93.50;;;;;;4912777;29;20055;-85
2021/10/05 18:09:34;;;;;;;4.07;2.92;;;14.50;93.50;;;;;;4912995;29;20044;-85
2021/10/05 18:11:59;;;;;;;2.88;1.63;;;14.40;93.50;;;;;;4911821;29;20405;-85
2021/10/05 18:14:26;;;;;;;2.08;1.52;;;14.40;93.60;;;;;;4918964;29;20174;-87
2021/10/05 18:16:51;;;;;;;2.00;1.60;;;14.40;93.60;;;;;;4914892;29;20028;-85
2021/10/05 18:19:18;;;;;;;3.80;1.77;;;14.40;93.60;;;;;;4912285;29;20028;-86
2021/10/05 18:21:44;;;;;;;1.67;1.58;;;14.40;93.60;;;;;;4914361;29;20504;-87
2021/10/05 18:24:12;;;;;;;0.82;0.82;;;14.30;93.60;;;;;;4913415;29;20047;-86
2021/10/05 18:26:44;;;;;;;1.42;0.90;;;14.30;93.50;;;;;;4915412;29;20505;-85
2021/10/05 18:29:09;;;;;;;1.33;0.70;;;14.20;93.40;;;;;;4912951;29;20051;-85
2021/10/05 18:31:36;;;;;;;0.77;0.77;;;14.30;93.30;;;;;;4915449;29;20111;-86
2021/10/05 18:34:02;;;;;;;0.55;0.50;;;14.30;93.20;;;;;;4915964;29;20099;-85
2021/10/05 18:36:27;;;;;;;0.50;0.50;;;14.30;93.00;;;;;;4912071;29;20032;-86
2021/10/05 18:38:53;;;;;;;0.90;0.68;;;14.30;92.90;;;;;;4912995;29;20024;-88
2021/10/05 18:41:19;;;;;;;1.20;0.60;;;14.20;92.70;;;;;;4910303;29;20034;-86
2021/10/05 18:43:45;;;;;;;0.60;0.60;;;14.20;92.70;;;;;;4905917;29;20473;-86
2021/10/05 18:46:10;;;;;;;1.73;1.00;;;14.20;92.70;;;;;;4908200;29;20064;-86
2021/10/05 18:48:37;;;;;;;1.65;1.30;;;14.10;92.60;;;;;;4906132;29;20035;-87
2021/10/05 18:51:04;;;;;;;0.73;0.60;;;14.10;92.60;;;;;;4914944;29;20043;-86
2021/10/05 18:53:29;;;;;;;1.75;0.50;;;14.00;92.60;;;;;;4907332;29;20056;-86
2021/10/05 18:55:55;;;;;;;1.38;0.75;;;13.90;92.50;;;;;;4914209;29;20062;-86
2021/10/05 18:58:21;;;;;;;1.05;0.55;;;13.90;92.50;;;;;;4913901;29;20111;-88
2021/10/05 19:00:46;;;;;;;1.30;0.60;;;13.80;92.60;;;;;;4915668;29;20036;-86
2021/10/05 19:03:12;;;;;;;1.23;0.90;;;13.70;92.60;;;;;;4914127;29;20042;-85
2021/10/05 19:05:38;;;;;;;0.90;0.90;;;13.70;92.70;;;;;;4906367;29;21700;-85
2021/10/05 19:08:04;;;;;;;0.70;0.57;;;13.60;92.80;;;;;;4914941;29;20048;-85
2021/10/05 19:10:30;;;;;;;0.70;0.70;;;13.60;92.80;;;;;;4915239;29;20039;-87
2021/10/05 19:12:57;;;;;;;0.70;0.60;;;13.60;92.90;;;;;;4913896;29;20349;-86
2021/10/05 19:15:28;;;;;;;0.80;0.65;;;13.50;92.90;;;;;;4912655;29;20884;-86
2021/10/05 19:17:56;;;;;;;0.98;0.55;;;13.40;92.90;;;;;;4913074;29;20421;-85
2021/10/05 19:20:23;;;;;;;0.73;0.60;;;13.40;93.00;;;;;;4907982;29;20028;-86
2021/10/05 19:22:49;;;;;;;0.88;0.75;;;13.40;93.10;;;;;;4909977;29;20036;-86
2021/10/05 19:25:15;;;;;;;0.90;0.50;;;13.30;93.20;;;;;;4911284;29;20564;-86
2021/10/05 19:27:40;;;;;;;1.33;0.90;;;13.30;93.20;;;;;;4914226;29;20048;-86
2021/10/05 19:30:06;;;;;;;0.63;0.60;;;13.30;93.30;;;;;;4912578;29;20120;-86
2021/10/05 19:32:32;;;;;;;2.33;0.65;;;13.20;93.40;;;;;;4913033;29;20064;-86
2021/10/05 19:34:58;;;;;;;1.10;1.00;;;13.20;93.40;;;;;;4908361;29;20060;-86
2021/10/05 19:37:23;;;;;;;0.85;0.85;;;13.20;93.40;;;;;;4910414;29;20028;-86
2021/10/05 19:39:49;;;;;;;0.80;0.80;;;13.10;93.50;;;;;;4910463;29;20063;-87
2021/10/05 19:42:14;;;;;;;1.33;0.70;;;13.10;93.50;;;;;;4910501;29;20043;-87
2021/10/05 19:44:40;;;;;;;0.80;0.80;;;13.10;93.60;;;;;;4910361;29;20138;-87
2021/10/05 19:47:06;;;;;;;1.48;0.80;;;13.10;93.60;;;;;;4912307;29;20399;-87
2021/10/05 19:49:31;;;;;;;1.98;0.65;;;13.10;93.70;;;;;;4912027;29;20042;-86
2021/10/05 19:51:57;;;;;;;1.40;0.70;;;13.00;93.70;;;;;;4913453;29;20115;-86
2021/10/05 19:54:24;;;;;;;0.57;0.52;;;13.00;93.70;;;;;;4909660;29;20055;-87
2021/10/05 19:56:50;;;;;;;1.73;0.70;;;13.00;93.80;;;;;;4907724;29;20103;-85
2021/10/05 19:59:15;;;;;;;1.60;0.70;;;13.00;93.90;;;;;;4915670;29;20079;-86
2021/10/05 20:01:41;;;;;;;1.73;0.60;;;12.90;93.90;;;;;;4917697;29;20035;-86
2021/10/05 20:04:06;;;;;;;0.95;0.70;;;13.00;93.90;;;;;;4914959;29;20040;-86
2021/10/05 20:06:32;;;;;;;1.27;0.70;;;12.90;94.00;;;;;;4915582;29;20032;-87
2021/10/05 20:08:59;;;;;;;1.50;0.80;;;12.90;94.00;;;;;;4915689;29;20121;-85
2021/10/05 20:11:24;;;;;;;2.72;0.60;;;12.90;94.10;;;;;;4919110;29;20102;-86
2021/10/05 20:13:50;;;;;;;2.28;0.70;;;12.90;94.10;;;;;;4917451;29;20115;-87
2021/10/05 20:16:16;;;;;;;2.83;0.70;;;12.90;94.20;;;;;;4918630;29;20096;-86
2021/10/05 20:18:41;;;;;;;1.77;0.75;;;12.80;94.20;;;;;;4917236;29;20031;-87
2021/10/05 20:21:07;;;;;;;2.45;0.82;;;12.80;94.20;;;;;;4924116;29;20028;-87
2021/10/05 20:23:33;;;;;;;2.63;0.63;;;12.70;94.30;;;;;;4927014;29;20021;-86
2021/10/05 20:25:59;;;;;;;0.68;0.60;;;12.80;94.30;;;;;;4925986;29;20040;-88
2021/10/05 20:28:25;;;;;;;0.68;0.68;;;12.70;94.40;;;;;;4920599;29;20036;-88
2021/10/05 20:30:51;;;;;;;0.60;0.60;;;12.70;94.50;;;;;;4918991;29;20036;-87
2021/10/05 20:33:17;;;;;;;0.95;0.70;;;12.70;94.50;;;;;;4921285;29;20036;-87
2021/10/05 20:35:43;;;;;;;0.85;0.60;;;12.60;94.50;;;;;;4921194;29;20031;-87
2021/10/05 20:38:08;;;;;;;1.40;0.60;;;12.60;94.60;;;;;;4924593;29;20092;-86
2021/10/05 20:40:34;;;;;;;0.68;0.63;;;12.60;94.70;;;;;;4920335;29;20432;-86
2021/10/05 20:43:00;;;;;;;0.90;0.70;;;12.70;94.70;;;;;;4921073;29;20059;-86
2021/10/05 20:45:26;;;;;;;0.70;0.63;;;12.70;94.80;;;;;;4919969;29;20032;-87
2021/10/05 20:47:52;;;;;;;0.82;0.60;;;12.70;95.00;;;;;;4921092;29;20028;-88
2021/10/05 20:50:18;;;;;;;1.65;0.60;;;12.60;94.80;;;;;;4913174;29;20040;-86
2021/10/05 20:52:43;;;;;;;2.40;0.60;;;12.70;94.80;;;;;;4908080;29;20345;-86
2021/10/05 20:55:09;;;;;;;0.77;0.57;;;12.60;95.00;;;;;;4919203;29;20028;-87
2021/10/05 20:57:35;;;;;;;0.80;0.80;;;12.60;94.80;;;;;;4912220;29;20034;-85
2021/10/05 21:00:02;;;;;;;2.45;1.38;;;12.60;94.90;;;;;;4915954;29;20051;-88
2021/10/05 21:02:28;;;;;;;1.50;0.95;;;12.60;94.90;;;;;;4918708;29;20517;-87
2021/10/05 21:04:54;;;;;;;2.35;1.10;;;12.60;94.90;;;;;;4919164;29;20040;-87
2021/10/05 21:07:19;;;;;;;2.05;1.30;;;12.60;94.90;;;;;;4919070;29;20039;-84
2021/10/05 21:09:45;;;;;;;1.50;0.93;;;12.60;94.90;;;;;;4923033;29;20024;-87
2021/10/05 21:12:11;;;;;;;3.22;0.95;;;12.60;94.80;;;;;;4922308;29;20036;-88
2021/10/05 21:14:36;;;;;;;1.20;1.10;;;12.60;94.80;;;;;;4921693;29;20028;-87
2021/10/05 21:17:02;;;;;;;1.45;1.20;;;12.50;94.80;;;;;;4923894;29;20056;-86
2021/10/05 21:19:28;;;;;;;1.35;0.90;;;12.50;94.80;;;;;;4921119;29;20059;-86
2021/10/05 21:21:54;;;;;;;2.53;0.93;;;12.50;94.70;;;;;;4920721;29;20394;-87
2021/10/05 21:24:20;;;;;;;0.80;0.80;;;12.50;94.70;;;;;;4916326;29;20096;-86
2021/10/05 21:26:45;;;;;;;3.80;0.70;;;12.60;94.80;;;;;;4922805;29;20413;-86
2021/10/05 21:29:11;;;;;;;2.10;0.85;;;12.50;94.60;;;;;;4920084;29;20030;-87
2021/10/05 21:31:37;;;;;;;0.70;0.70;;;12.50;94.60;;;;;;4921736;29;20085;-87
2021/10/05 21:34:02;;;;;;;1.52;0.70;;;12.50;94.70;;;;;;4920388;29;20064;-87
2021/10/05 21:36:28;;;;;;;5.70;0.85;;;12.50;94.70;;;;;;4921274;29;20544;-87
2021/10/05 21:38:54;;;;;;;1.90;0.80;;;12.50;94.70;;;;;;4921482;29;20028;-88
2021/10/05 21:41:19;;;;;;;2.78;0.82;;;12.50;94.70;;;;;;4920672;29;20056;-87
2021/10/05 21:43:45;;;;;;;2.50;0.70;;;12.50;94.70;;;;;;4920060;29;20024;-87
2021/10/05 21:46:10;;;;;;;1.80;0.70;;;12.50;94.70;;;;;;4920426;29;20031;-86
2021/10/05 21:48:36;;;;;;;2.42;0.70;;;12.40;94.60;;;;;;4921889;29;20095;-87
2021/10/05 21:51:02;;;;;;;2.42;0.60;;;12.40;94.60;;;;;;4918850;29;20103;-86
2021/10/05 21:53:28;;;;;;;1.40;0.57;;;12.40;94.60;;;;;;4919946;29;20494;-87
2021/10/05 21:55:54;;;;;;;2.35;1.13;;;12.40;94.70;;;;;;4920383;29;20028;-88
2021/10/05 21:58:19;;;;;;;0.77;0.70;;;12.30;94.60;;;;;;4919728;29;20043;-87
2021/10/05 22:00:46;;;;;;;0.70;0.57;;;12.20;94.60;;;;;;4920911;29;20024;-87
2021/10/05 22:03:11;;;;;;;1.10;0.70;;;12.30;94.60;;;;;;4919846;29;20043;-86
2021/10/05 22:05:37;;;;;;;2.50;1.20;;;12.30;94.70;;;;;;4920642;29;20064;-86
2021/10/05 22:08:03;;;;;;;0.90;0.57;;;12.20;94.60;;;;;;4920456;29;20042;-86
2021/10/05 22:10:29;;;;;;;1.25;0.65;;;12.20;94.70;;;;;;4920423;29;20143;-86
2021/10/05 22:12:56;;;;;;;1.00;0.73;;;12.10;94.70;;;;;;4920248;29;20047;-86
2021/10/05 22:15:22;;;;;;;3.05;1.02;;;12.20;94.70;;;;;;4911318;29;20071;-86
2021/10/05 22:17:47;;;;;;;2.75;0.80;;;12.10;94.60;;;;;;4909654;29;20028;-85
2021/10/05 22:20:17;;;;;;;1.48;0.80;;;12.10;94.60;;;;;;4916298;29;20036;-87
2021/10/05 22:22:44;;;;;;;2.13;0.63;;;12.10;94.60;;;;;;4916888;29;20126;-87
2021/10/05 22:25:11;;;;;;;1.92;0.60;;;12.00;94.50;;;;;;4921955;29;20024;-85
2021/10/05 22:27:38;;;;;;;1.13;0.70;;;12.00;94.60;;;;;;4916032;29;20033;-87
2021/10/05 22:30:06;;;;;;;1.50;0.60;;;12.00;94.60;;;;;;4915129;29;20031;-87
2021/10/05 22:32:31;;;;;;;1.60;0.77;;;12.00;94.70;;;;;;4918504;29;20491;-85
2021/10/05 22:35:00;;;;;;;1.17;0.70;;;12.00;94.60;;;;;;4918158;29;20047;-87
2021/10/05 22:37:31;;;;;;;2.90;0.93;;;11.90;94.60;;;;;;4920320;29;20020;-87
2021/10/05 22:39:57;;;;;;;1.88;0.70;;;11.90;94.60;;;;;;4918755;29;20051;-86
2021/10/05 22:42:23;;;;;;;3.17;0.85;;;11.90;94.60;;;;;;4918636;29;20028;-87
2021/10/05 22:44:49;;;;;;;2.40;0.73;;;11.80;94.60;;;;;;4918984;29;20036;-87
2021/10/05 22:47:14;;;;;;;2.45;0.80;;;11.80;94.60;;;;;;4914001;29;20042;-86
2021/10/05 22:49:40;;;;;;;2.03;0.60;;;11.70;94.60;;;;;;4917023;29;20048;-86
2021/10/05 22:52:07;;;;;;;5.55;0.70;;;11.70;94.60;;;;;;4914208;29;20483;-86
2021/10/05 22:54:32;;;;;;;2.58;0.77;;;11.70;94.60;;;;;;4916312;29;20034;-86
2021/10/05 22:56:58;;;;;;;3.38;0.70;;;11.70;94.60;;;;;;4914796;29;20115;-87
2021/10/05 22:59:23;;;;;;;2.75;0.73;;;11.60;94.60;;;;;;4917037;29;20079;-87
2021/10/05 23:01:49;;;;;;;2.38;0.85;;;11.60;94.60;;;;;;4916368;29;20111;-86
2021/10/05 23:04:14;;;;;;;4.88;0.60;;;11.50;94.70;;;;;;4915610;29;20042;-86
